Time;durP1;ratioP1;P1;durP2;ratioP2;P2;SDS_P1;SDS_P2;PMS_P1;PMS_P2;Temp;Humidity;BMP_temperature;BMP_pressure;BME280_temperature;BME280_humidity;BME280_pressure;Samples;Min_cycle;Max_cycle;Signal;HPM_P1;HPM_P2
2022/12/10 00:01:25;;;;;;;31.90;17.20;;;;;;;-3.28;71.03;100238.59;6096939;23;20034;-70
2022/12/10 00:03:52;;;;;;;39.53;18.55;;;;;;;-3.18;71.37;100246.81;6097106;23;20027;-70
2022/12/10 00:06:21;;;;;;;36.22;18.63;;;;;;;-3.22;71.76;100240.06;6093110;23;20028;-70
2022/12/10 00:08:47;;;;;;;38.03;18.48;;;;;;;-3.16;71.23;100238.88;6097775;23;20030;-70
2022/12/10 00:11:15;;;;;;;40.90;18.45;;;;;;;-3.20;71.10;100243.47;6098584;23;20018;-70
2022/12/10 00:13:42;;;;;;;38.33;18.80;;;;;;;-3.12;70.41;100236.00;6098258;23;20034;-71
2022/12/10 00:16:11;;;;;;;34.45;16.67;;;;;;;-3.24;71.14;100241.91;6096923;23;20022;-71
2022/12/10 00:18:38;;;;;;;39.03;18.10;;;;;;;-3.23;71.66;100243.63;6097175;23;20045;-71
2022/12/10 00:21:11;;;;;;;34.72;17.42;;;;;;;-3.10;70.77;100243.78;6097653;23;20018;-71
2022/12/10 00:23:38;;;;;;;35.10;17.63;;;;;;;-3.22;71.12;100247.94;6097656;23;20029;-71
2022/12/10 00:26:07;;;;;;;43.13;19.95;;;;;;;-3.25;71.24;100240.22;6097239;23;20045;-70
2022/12/10 00:28:34;;;;;;;36.17;18.23;;;;;;;-3.29;71.10;100243.94;6098019;23;20022;-70
2022/12/10 00:31:19;;;;;;;39.55;18.67;;;;;;;-3.24;71.18;100238.44;6098946;23;20014;-70
2022/12/10 00:33:46;;;;;;;39.70;19.20;;;;;;;-3.22;71.44;100244.47;6097450;23;20053;-71
2022/12/10 00:36:18;;;;;;;40.88;19.45;;;;;;;-3.16;71.24;100244.97;6098298;23;20019;-71
2022/12/10 00:38:45;;;;;;;39.70;19.05;;;;;;;-3.28;71.65;100250.88;6099169;23;20031;-70
2022/12/10 00:41:12;;;;;;;39.30;19.98;;;;;;;-3.34;71.89;100249.47;6098422;23;20026;-71
2022/12/10 00:43:39;;;;;;;38.67;18.73;;;;;;;-3.30;71.84;100248.34;6097497;23;20026;-70
2022/12/10 00:46:06;;;;;;;38.67;19.30;;;;;;;-3.19;71.15;100258.25;6099343;23;20102;-70
2022/12/10 00:48:33;;;;;;;36.83;18.58;;;;;;;-3.26;71.01;100256.91;6099886;23;20078;-71
2022/12/10 00:51:07;;;;;;;42.17;21.15;;;;;;;-3.31;71.62;100257.16;6097387;23;20019;-71
2022/12/10 00:53:35;;;;;;;38.85;19.35;;;;;;;-3.33;71.40;100258.16;6127105;23;20018;-71
2022/12/10 00:56:03;;;;;;;45.15;19.73;;;;;;;-3.31;71.65;100266.78;6123011;23;20021;-70
2022/12/10 00:58:32;;;;;;;36.13;18.70;;;;;;;-3.23;71.01;100256.75;6114246;23;20033;-71
2022/12/10 01:01:16;;;;;;;40.10;21.23;;;;;;;-3.36;71.29;100256.53;6127982;23;20298;-71
2022/12/10 01:03:44;;;;;;;39.78;19.60;;;;;;;-3.42;71.78;100256.88;6112847;23;20054;-70
2022/12/10 01:06:14;;;;;;;44.83;21.05;;;;;;;-3.32;71.47;100263.31;6127902;23;20026;-70
2022/12/10 01:08:42;;;;;;;42.90;18.85;;;;;;;-3.26;71.60;100263.94;6128583;23;20359;-70
2022/12/10 01:11:10;;;;;;;39.60;19.33;;;;;;;-3.33;71.32;100259.00;6128143;23;20473;-70
2022/12/10 01:13:38;;;;;;;39.38;19.73;;;;;;;-3.35;71.46;100255.59;6127416;23;20373;-70
2022/12/10 01:16:06;;;;;;;40.72;20.10;;;;;;;-3.34;71.73;100262.56;6129635;23;20017;-71
2022/12/10 01:18:34;;;;;;;38.10;19.98;;;;;;;-3.30;71.58;100263.25;6127568;23;20053;-71
2022/12/10 01:21:08;;;;;;;41.33;20.60;;;;;;;-3.30;71.29;100258.84;6128743;23;20032;-71
2022/12/10 01:23:37;;;;;;;39.60;19.67;;;;;;;-3.35;71.82;100258.22;6128381;23;20032;-71
2022/12/10 01:26:06;;;;;;;43.83;20.40;;;;;;;-3.38;71.39;100255.78;6121716;23;20022;-71
2022/12/10 01:28:35;;;;;;;38.53;19.83;;;;;;;-3.33;72.05;100258.16;6122168;23;20026;-69
2022/12/10 01:31:10;;;;;;;45.67;21.15;;;;;;;-3.34;71.92;100254.69;6129934;23;20033;-70
2022/12/10 01:33:39;;;;;;;42.40;20.92;;;;;;;-3.21;71.68;100260.09;6128504;23;20025;-70
2022/12/10 01:36:12;;;;;;;43.70;20.85;;;;;;;-3.18;71.16;100256.47;6130152;23;20028;-70
2022/12/10 01:38:38;;;;;;;40.70;20.85;;;;;;;-3.26;71.52;100246.41;6127993;23;20018;-71
2022/12/10 01:41:07;;;;;;;46.28;21.10;;;;;;;-3.22;71.47;100254.97;6129486;23;20018;-70
2022/12/10 01:43:57;;;;;;;47.22;20.95;;;;;;;-3.39;72.26;100251.47;6129286;23;20025;-70
2022/12/10 01:46:33;;;;;;;43.03;20.52;;;;;;;-3.23;71.45;100254.13;6128055;23;20018;-71
2022/12/10 01:49:02;;;;;;;55.53;20.20;;;;;;;-3.40;72.04;100257.66;6128265;23;20029;-70
2022/12/10 01:51:30;;;;;;;38.60;19.33;;;;;;;-3.40;71.84;100257.66;6128490;23;20021;-70
2022/12/10 01:53:57;;;;;;;48.22;21.88;;;;;;;-3.40;71.78;100249.78;6128732;23;20053;-70
2022/12/10 01:56:24;;;;;;;38.97;19.83;;;;;;;-3.48;72.10;100256.34;6128817;23;20022;-71
2022/12/10 01:58:54;;;;;;;43.60;21.13;;;;;;;-3.35;72.11;100260.00;6127755;23;20029;-69
2022/12/10 02:01:38;;;;;;;40.70;18.65;;;;;;;-3.32;71.67;100255.44;6126997;23;20032;-70
2022/12/10 02:04:26;;;;;;;40.47;20.40;;;;;;;-3.36;71.85;100251.31;6123544;23;20096;-70
2022/12/10 02:07:27;;;;;;;42.50;19.08;;;;;;;-3.36;71.88;100259.16;6120129;23;20032;-70
2022/12/10 02:10:19;;;;;;;39.25;18.52;;;;;;;-3.42;72.16;100256.88;6121196;23;20028;-70
2022/12/10 02:12:52;;;;;;;38.05;18.63;;;;;;;-3.51;72.25;100254.75;6123313;23;20018;-71
2022/12/10 02:15:24;;;;;;;44.00;20.00;;;;;;;-3.39;71.89;100254.09;6127149;23;20336;-70
2022/12/10 02:18:13;;;;;;;43.97;18.58;;;;;;;-3.49;71.68;100254.66;6127286;23;20125;-70
2022/12/10 02:21:04;;;;;;;36.63;18.42;;;;;;;-3.45;71.46;100243.06;6126512;23;20021;-70
2022/12/10 02:23:37;;;;;;;39.40;17.98;;;;;;;-3.46;71.29;100242.22;6127768;23;20033;-70
2022/12/10 02:26:26;;;;;;;38.60;18.95;;;;;;;-3.48;71.13;100244.09;6128719;23;20046;-71
2022/12/10 02:28:52;;;;;;;40.80;18.67;;;;;;;-3.45;71.71;100240.44;6096956;23;20086;-70
2022/12/10 02:31:25;;;;;;;36.40;18.23;;;;;;;-3.42;71.04;100243.75;6097810;23;20108;-71
2022/12/10 02:33:58;;;;;;;36.60;17.48;;;;;;;-3.60;71.68;100239.50;6098289;23;20033;-70
2022/12/10 02:36:29;;;;;;;38.50;19.08;;;;;;;-3.57;71.58;100239.34;6098222;23;20356;-70
2022/12/10 02:38:59;;;;;;;35.40;17.08;;;;;;;-3.61;71.70;100248.31;6095891;23;20033;-70
2022/12/10 02:41:30;;;;;;;38.30;18.88;;;;;;;-3.61;72.08;100243.06;6098450;23;20022;-71
2022/12/10 02:43:59;;;;;;;36.42;18.05;;;;;;;-3.60;71.77;100245.59;6099404;23;20030;-70
2022/12/10 02:46:29;;;;;;;40.15;19.73;;;;;;;-3.48;71.42;100238.88;6098754;23;20091;-70
2022/12/10 02:48:58;;;;;;;37.07;17.73;;;;;;;-3.70;72.07;100243.53;6099379;23;20026;-71
2022/12/10 02:51:24;;;;;;;33.22;17.50;;;;;;;-3.56;71.73;100241.03;6099230;23;20102;-70
2022/12/10 02:54:05;;;;;;;35.20;17.80;;;;;;;-3.60;71.54;100256.06;6099949;23;20081;-71
2022/12/10 02:56:52;;;;;;;35.63;18.43;;;;;;;-3.64;71.67;100254.56;6099866;23;20030;-69
2022/12/10 02:59:36;;;;;;;35.97;18.27;;;;;;;-3.67;71.86;100251.25;6125246;23;20265;-71
2022/12/10 03:02:15;;;;;;;38.42;18.88;;;;;;;-3.74;71.92;100252.50;6128287;23;20025;-70
2022/12/10 03:05:04;;;;;;;35.92;18.25;;;;;;;-3.70;71.86;100259.28;6123036;23;20348;-69
2022/12/10 03:07:41;;;;;;;38.72;19.20;;;;;;;-3.84;72.23;100252.13;6117661;23;20028;-71
2022/12/10 03:10:17;;;;;;;39.47;18.95;;;;;;;-3.91;72.89;100253.38;6125258;23;20081;-71
2022/12/10 03:12:49;;;;;;;42.55;20.45;;;;;;;-3.89;72.62;100260.22;6126224;23;20447;-70
2022/12/10 03:15:18;;;;;;;40.55;19.98;;;;;;;-3.78;72.24;100259.69;6125059;23;20029;-69
2022/12/10 03:17:47;;;;;;;35.97;19.45;;;;;;;-3.95;72.60;100260.53;6127208;23;20028;-70
2022/12/10 03:20:15;;;;;;;48.58;21.58;;;;;;;-3.98;72.65;100265.09;6127592;23;20473;-69
2022/12/10 03:22:45;;;;;;;40.85;20.67;;;;;;;-3.94;72.80;100262.22;6126748;23;20025;-69
2022/12/10 03:25:17;;;;;;;43.55;21.27;;;;;;;-3.83;72.50;100256.44;6126553;23;20026;-69
2022/12/10 03:27:46;;;;;;;38.92;18.88;;;;;;;-3.80;72.26;100259.75;6126706;23;20030;-69
2022/12/10 03:30:12;;;;;;;43.10;20.50;;;;;;;-3.85;72.34;100272.25;6125566;23;20348;-70
2022/12/10 03:32:39;;;;;;;39.63;19.45;;;;;;;-3.99;72.15;100269.50;6129065;23;20029;-70
2022/12/10 03:35:06;;;;;;;41.50;19.70;;;;;;;-3.92;72.74;100264.78;6120402;23;20018;-70
2022/12/10 03:37:34;;;;;;;42.00;20.73;;;;;;;-3.80;72.09;100264.97;6125697;23;20026;-71
2022/12/10 03:40:01;;;;;;;42.47;20.10;;;;;;;-3.88;72.61;100261.91;6125702;23;20026;-70
2022/12/10 03:42:28;;;;;;;39.40;20.08;;;;;;;-3.73;71.99;100259.44;6124440;23;20475;-70
2022/12/10 03:44:54;;;;;;;39.78;19.15;;;;;;;-3.75;71.85;100266.53;6127214;23;20026;-69
2022/12/10 03:47:23;;;;;;;41.80;20.15;;;;;;;-3.74;71.68;100265.59;6126542;23;20022;-71
2022/12/10 03:49:49;;;;;;;38.10;18.90;;;;;;;-3.61;71.42;100271.91;6126444;23;20022;-69
2022/12/10 03:52:16;;;;;;;38.15;19.25;;;;;;;-3.60;71.34;100273.59;6125515;23;20022;-69
2022/12/10 03:54:42;;;;;;;38.83;20.45;;;;;;;-3.57;70.93;100273.44;6124465;23;20040;-69
2022/12/10 03:57:09;;;;;;;43.58;20.23;;;;;;;-3.66;71.91;100276.53;6126670;23;20351;-70
2022/12/10 03:59:35;;;;;;;41.90;19.55;;;;;;;-3.62;71.62;100283.28;6124212;23;20032;-70
2022/12/10 04:02:02;;;;;;;41.22;20.52;;;;;;;-3.57;71.16;100281.31;6125675;23;20030;-69
2022/12/10 04:04:30;;;;;;;37.22;19.92;;;;;;;-3.64;71.09;100279.94;6125406;23;20096;-70
2022/12/10 04:06:56;;;;;;;37.15;20.08;;;;;;;-3.66;71.62;100284.38;6124658;23;20036;-71
2022/12/10 04:09:23;;;;;;;42.78;20.55;;;;;;;-3.64;71.58;100287.78;6122901;23;20104;-69
2022/12/10 04:11:49;;;;;;;40.78;21.23;;;;;;;-3.59;71.19;100286.59;6126591;23;20026;-70
2022/12/10 04:17:01;;;;;;;47.35;21.50;;;;;;;-3.45;70.59;100282.41;6125083;23;20034;-69
2022/12/10 04:19:27;;;;;;;47.08;22.00;;;;;;;-3.58;71.41;100283.06;6126071;23;20028;-70
2022/12/10 04:27:30;;;;;;;47.28;23.05;;;;;;;-3.62;71.77;100283.28;6127359;23;20112;-70
2022/12/10 04:29:58;;;;;;;43.53;21.52;;;;;;;-3.59;71.11;100276.13;6125007;23;20025;-69
2022/12/10 04:32:26;;;;;;;45.95;21.50;;;;;;;-3.50;70.98;100276.56;6125394;23;20022;-70
2022/12/10 04:34:53;;;;;;;45.33;23.05;;;;;;;-3.42;71.14;100271.75;6122094;23;20022;-70
2022/12/10 04:37:20;;;;;;;45.33;22.08;;;;;;;-3.55;71.31;100282.91;6126623;23;20336;-69
2022/12/10 04:39:49;;;;;;;45.20;21.73;;;;;;;-3.60;71.42;100276.22;6126821;23;20026;-70
2022/12/10 04:42:17;;;;;;;45.28;22.08;;;;;;;-3.61;71.66;100279.78;6126135;23;20020;-70
2022/12/10 04:44:43;;;;;;;43.83;21.98;;;;;;;-3.46;71.51;100284.19;6124908;23;20026;-70
2022/12/10 04:47:11;;;;;;;46.30;22.67;;;;;;;-3.42;71.03;100290.13;6125044;23;20100;-70
2022/12/10 04:49:38;;;;;;;43.45;23.60;;;;;;;-3.24;70.61;100283.88;6126130;23;20025;-70
2022/12/10 04:52:06;;;;;;;47.33;22.88;;;;;;;-3.24;70.34;100277.78;6125317;23;20093;-70
2022/12/10 04:54:33;;;;;;;47.17;23.38;;;;;;;-3.36;70.77;100293.28;6118628;23;20024;-70
2022/12/10 04:57:04;;;;;;;43.53;21.75;;;;;;;-3.49;71.18;100280.88;6122272;23;20022;-69
2022/12/10 04:59:31;;;;;;;46.30;21.88;;;;;;;-3.36;71.21;100281.94;6126413;23;20020;-69
2022/12/10 05:01:57;;;;;;;43.72;21.90;;;;;;;-3.33;70.74;100287.88;6127076;23;20025;-70
2022/12/10 05:04:24;;;;;;;43.42;21.42;;;;;;;-3.41;71.01;100276.94;6125272;23;20105;-70
2022/12/10 05:06:50;;;;;;;42.65;22.05;;;;;;;-3.36;70.94;100282.78;6125996;23;20513;-70
2022/12/10 05:09:17;;;;;;;44.17;21.50;;;;;;;-3.29;70.11;100284.13;6125909;23;20032;-69
2022/12/10 05:11:44;;;;;;;43.78;21.70;;;;;;;-3.16;70.57;100280.88;6124177;23;20028;-68
2022/12/10 05:14:13;;;;;;;41.20;20.52;;;;;;;-3.23;71.34;100284.75;6127448;23;20078;-69
2022/12/10 05:16:40;;;;;;;44.72;20.55;;;;;;;-3.17;70.83;100289.66;6091831;23;20033;-69
2022/12/10 05:19:07;;;;;;;42.65;20.85;;;;;;;-3.13;70.56;100292.03;6093370;23;20043;-70
2022/12/10 05:24:19;;;;;;;39.83;20.27;;;;;;;-3.09;70.21;100288.31;6122157;23;20033;-70
2022/12/10 05:26:46;;;;;;;41.85;20.27;;;;;;;-3.08;69.37;100289.16;6125595;23;20026;-70
2022/12/10 05:29:13;;;;;;;40.10;20.27;;;;;;;-3.15;69.54;100287.81;6124740;23;20105;-70
2022/12/10 05:31:40;;;;;;;42.03;20.13;;;;;;;-3.22;69.94;100289.91;6126651;23;20021;-70
2022/12/10 05:34:08;;;;;;;42.40;20.27;;;;;;;-3.21;69.25;100293.38;6125697;23;20062;-71
2022/12/10 05:36:34;;;;;;;37.85;18.88;;;;;;;-3.32;69.97;100292.16;6126425;23;20038;-71
2022/12/10 05:39:01;;;;;;;39.03;19.77;;;;;;;-3.08;68.90;100292.63;6126707;23;20026;-70
2022/12/10 05:41:30;;;;;;;39.90;20.15;;;;;;;-3.23;69.54;100298.72;6125327;23;20363;-70
2022/12/10 05:43:58;;;;;;;37.92;19.05;;;;;;;-3.21;69.47;100299.47;6120442;23;20022;-69
2022/12/10 05:46:29;;;;;;;38.47;18.80;;;;;;;-3.13;69.54;100292.03;6126259;23;20481;-71
2022/12/10 05:48:57;;;;;;;40.85;19.75;;;;;;;-3.09;68.68;100292.72;6126040;23;20371;-69
2022/12/10 05:51:27;;;;;;;33.22;18.70;;;;;;;-3.17;69.34;100295.78;6100360;23;20032;-70
2022/12/10 05:53:54;;;;;;;36.50;18.63;;;;;;;-3.10;69.30;100291.00;6124910;23;20049;-71
2022/12/10 05:56:23;;;;;;;35.38;18.15;;;;;;;-3.20;69.67;100295.94;6126444;23;20354;-70
2022/12/10 05:58:53;;;;;;;34.35;17.77;;;;;;;-3.16;69.30;100294.00;6126640;23;20048;-70
2022/12/10 06:01:22;;;;;;;34.53;18.73;;;;;;;-3.09;68.39;100287.47;6127626;23;20028;-70
2022/12/10 06:03:51;;;;;;;37.35;18.27;;;;;;;-2.96;68.78;100298.13;6111665;23;20030;-71
2022/12/10 06:06:30;;;;;;;36.15;19.10;;;;;;;-3.02;68.24;100293.25;6091031;23;20024;-72
2022/12/10 06:08:57;;;;;;;37.42;18.50;;;;;;;-3.05;68.87;100292.47;6093649;23;20030;-70
2022/12/10 06:11:26;;;;;;;34.88;19.08;;;;;;;-3.07;68.49;100285.59;6097355;23;20046;-69
2022/12/10 06:13:54;;;;;;;35.42;17.90;;;;;;;-2.87;68.11;100284.50;6098396;23;20034;-70
2022/12/10 06:16:22;;;;;;;36.65;19.08;;;;;;;-2.96;68.20;100293.75;6098947;23;20023;-71
2022/12/10 06:18:49;;;;;;;33.47;17.55;;;;;;;-2.92;68.38;100289.19;6100359;23;20364;-70
2022/12/10 06:21:17;;;;;;;35.13;19.05;;;;;;;-2.89;67.53;100300.34;6100075;23;20097;-70
2022/12/10 06:23:44;;;;;;;33.70;17.58;;;;;;;-3.07;67.72;100293.47;6095020;23;20026;-69
2022/12/10 06:26:14;;;;;;;32.95;17.98;;;;;;;-3.00;67.20;100297.44;6100467;23;20026;-70
2022/12/10 06:28:41;;;;;;;35.97;18.40;;;;;;;-2.96;67.80;100298.13;6088561;23;20101;-71
2022/12/10 06:31:08;;;;;;;34.58;18.05;;;;;;;-3.11;68.43;100294.56;6100013;23;20023;-70
2022/12/10 06:33:35;;;;;;;36.80;18.92;;;;;;;-2.96;67.94;100300.75;6099692;23;20030;-70
2022/12/10 06:36:05;;;;;;;30.35;17.02;;;;;;;-3.00;67.79;100307.94;6099779;23;20033;-71
2022/12/10 06:38:33;;;;;;;35.00;17.52;;;;;;;-3.04;67.86;100303.81;6096987;23;20026;-70
2022/12/10 06:41:00;;;;;;;31.45;17.40;;;;;;;-3.03;67.97;100312.50;6099303;23;20026;-70
2022/12/10 06:43:29;;;;;;;32.45;17.17;;;;;;;-3.00;67.20;100307.94;6098701;23;20018;-70
2022/12/10 06:45:56;;;;;;;29.55;16.73;;;;;;;-3.09;67.54;100313.72;6098943;23;20373;-70
2022/12/10 06:48:23;;;;;;;33.08;17.70;;;;;;;-2.88;66.97;100312.53;6097890;23;20045;-71
2022/12/10 06:50:50;;;;;;;31.65;16.05;;;;;;;-2.96;67.15;100320.00;6099904;23;20089;-71
2022/12/10 06:53:16;;;;;;;29.63;16.25;;;;;;;-2.98;67.11;100319.22;6099120;23;20026;-71
2022/12/10 06:55:43;;;;;;;33.95;16.52;;;;;;;-3.01;67.54;100316.75;6099019;23;20042;-71
2022/12/10 06:58:09;;;;;;;32.70;16.20;;;;;;;-3.16;67.47;100323.69;6098793;23;20018;-71
2022/12/10 07:00:36;;;;;;;29.60;16.13;;;;;;;-3.09;67.18;100326.84;6099870;23;20101;-70
2022/12/10 07:03:02;;;;;;;27.85;14.80;;;;;;;-2.96;67.27;100327.00;6098808;23;20340;-70
2022/12/10 07:05:28;;;;;;;29.83;15.77;;;;;;;-3.06;67.09;100332.75;6114543;23;20093;-70
2022/12/10 07:07:55;;;;;;;31.20;16.38;;;;;;;-2.90;66.51;100330.13;6128244;23;20032;-70
2022/12/10 07:10:22;;;;;;;27.33;15.02;;;;;;;-2.97;66.44;100327.94;6129319;23;20072;-70
2022/12/10 07:12:48;;;;;;;29.58;15.82;;;;;;;-3.13;66.68;100331.41;6127537;23;20113;-70
2022/12/10 07:15:15;;;;;;;27.95;15.18;;;;;;;-3.09;67.50;100340.78;6129155;23;20451;-69
2022/12/10 07:17:42;;;;;;;26.20;15.10;;;;;;;-2.95;66.24;100332.19;6129023;23;20034;-70
2022/12/10 07:20:09;;;;;;;29.35;15.60;;;;;;;-3.05;66.41;100328.34;6125849;23;20029;-72
2022/12/10 07:22:36;;;;;;;27.25;15.15;;;;;;;-3.03;66.24;100338.75;6127392;23;20034;-70
2022/12/10 07:25:03;;;;;;;32.80;15.55;;;;;;;-3.02;66.16;100340.47;6126070;23;20036;-70
2022/12/10 07:27:31;;;;;;;29.70;15.50;;;;;;;-3.00;66.01;100339.44;6127586;23;20018;-70
2022/12/10 07:29:57;;;;;;;26.23;14.80;;;;;;;-2.92;65.34;100332.03;6128791;23;20481;-71
2022/12/10 07:32:26;;;;;;;27.58;15.65;;;;;;;-3.04;66.09;100335.28;6129736;23;20097;-70
2022/12/10 07:34:52;;;;;;;25.33;14.82;;;;;;;-2.99;65.86;100340.31;6126019;23;20028;-69
2022/12/10 07:37:18;;;;;;;26.13;14.93;;;;;;;-3.02;66.36;100346.56;6126696;23;20030;-69
2022/12/10 07:39:45;;;;;;;26.95;14.25;;;;;;;-3.04;66.53;100345.78;6127463;23;20018;-72
2022/12/10 07:42:12;;;;;;;25.70;14.13;;;;;;;-3.18;66.60;100351.78;6127559;23;20021;-69
2022/12/10 07:44:38;;;;;;;24.63;14.15;;;;;;;-3.07;66.79;100356.44;6127266;23;20101;-70
2022/12/10 07:47:05;;;;;;;24.48;13.55;;;;;;;-3.04;66.34;100353.66;6100723;23;20033;-69
2022/12/10 07:49:31;;;;;;;24.90;14.13;;;;;;;-2.94;65.83;100354.88;6127256;23;20328;-69
2022/12/10 07:51:58;;;;;;;22.45;13.50;;;;;;;-3.16;66.52;100362.22;6127323;23;20037;-70
2022/12/10 07:54:24;;;;;;;26.55;14.38;;;;;;;-3.05;65.87;100367.72;6126674;23;20018;-69
2022/12/10 07:56:51;;;;;;;24.30;13.50;;;;;;;-3.12;65.95;100366.34;6127172;23;20025;-70
2022/12/10 07:59:17;;;;;;;27.30;13.95;;;;;;;-3.09;65.86;100364.41;6126614;23;20355;-70
2022/12/10 08:01:44;;;;;;;27.15;14.77;;;;;;;-3.07;66.07;100372.19;6127411;23;20026;-70
2022/12/10 08:04:10;;;;;;;26.48;14.90;;;;;;;-3.10;65.60;100369.72;6126715;23;20022;-69
2022/12/10 08:06:37;;;;;;;31.13;14.50;;;;;;;-3.18;65.73;100366.66;6126638;23;20475;-70
2022/12/10 08:09:03;;;;;;;29.38;13.38;;;;;;;-3.21;65.59;100372.06;6126473;23;20021;-69
2022/12/10 08:11:30;;;;;;;26.05;13.63;;;;;;;-3.12;65.68;100377.69;6124498;23;20028;-70
2022/12/10 08:13:57;;;;;;;22.63;12.95;;;;;;;-3.12;65.98;100376.84;6126978;23;20097;-70
2022/12/10 08:16:25;;;;;;;22.42;12.70;;;;;;;-3.07;65.54;100378.28;6125405;23;20046;-70
2022/12/10 08:18:57;;;;;;;22.75;12.50;;;;;;;-3.09;65.22;100376.69;6125939;23;20061;-71
2022/12/10 08:21:27;;;;;;;23.27;13.10;;;;;;;-3.04;65.63;100377.28;6125231;23;20069;-71
2022/12/10 08:23:54;;;;;;;24.02;13.05;;;;;;;-2.89;64.42;100383.47;6125694;23;20032;-71
2022/12/10 08:26:24;;;;;;;22.83;12.55;;;;;;;-2.93;64.46;100387.22;6126169;23;20021;-70
2022/12/10 08:28:51;;;;;;;23.17;13.25;;;;;;;-3.02;64.78;100383.31;6125990;23;20077;-69
2022/12/10 08:31:20;;;;;;;25.08;13.05;;;;;;;-2.88;65.11;100385.19;6125601;23;20021;-70
2022/12/10 08:33:46;;;;;;;27.35;13.38;;;;;;;-2.96;65.25;100390.88;6124694;23;20085;-68
2022/12/10 08:36:15;;;;;;;27.77;14.10;;;;;;;-2.95;64.96;100395.19;6126672;23;20022;-69
2022/12/10 08:38:43;;;;;;;24.08;13.65;;;;;;;-2.91;64.80;100388.81;6124311;23;20026;-70
2022/12/10 08:41:14;;;;;;;22.52;13.18;;;;;;;-3.00;64.65;100391.09;6125092;23;20026;-70
2022/12/10 08:43:42;;;;;;;;;;;;;;;-2.84;64.32;100392.81;6126192;23;20041;-69
2022/12/10 08:46:09;;;;;;;26.48;13.95;;;;;;;-2.82;64.44;100390.97;6125472;23;19917;-70
2022/12/10 08:48:37;;;;;;;23.67;13.07;;;;;;;-2.91;65.07;100391.44;6125093;23;20487;-71
2022/12/10 08:51:05;;;;;;;26.23;14.63;;;;;;;-3.08;65.44;100399.38;6125388;23;20025;-71
2022/12/10 08:53:32;;;;;;;24.40;13.63;;;;;;;-2.99;65.31;100398.91;6125204;23;20097;-71
2022/12/10 08:55:59;;;;;;;23.00;13.10;;;;;;;-2.91;65.00;100401.94;6125450;23;20048;-71
2022/12/10 08:58:26;;;;;;;24.67;13.85;;;;;;;-2.86;64.62;100402.56;6124860;23;20026;-71
2022/12/10 09:00:52;;;;;;;29.20;13.85;;;;;;;-3.01;65.59;100400.75;6123897;23;20022;-70
2022/12/10 09:03:19;;;;;;;21.48;13.23;;;;;;;-2.96;65.36;100403.13;6126696;23;20034;-70
2022/12/10 09:05:46;;;;;;;23.73;13.40;;;;;;;-2.81;64.50;100408.41;6126245;23;20467;-69
2022/12/10 09:08:13;;;;;;;27.15;14.93;;;;;;;-2.75;64.65;100404.63;6125516;23;20029;-71
2022/12/10 09:10:41;;;;;;;25.38;14.07;;;;;;;-2.81;65.08;100407.56;6123857;23;20338;-70
2022/12/10 09:13:07;;;;;;;26.70;15.55;;;;;;;-2.71;64.37;100405.28;6123655;23;20463;-70
2022/12/10 09:15:34;;;;;;;25.90;14.10;;;;;;;-2.73;64.92;100409.78;6125208;23;20028;-71
2022/12/10 09:18:00;;;;;;;21.27;13.13;;;;;;;-2.84;65.05;100418.22;6109076;23;20025;-70
2022/12/10 09:20:27;;;;;;;25.90;14.02;;;;;;;-2.72;64.45;100406.19;6099227;23;20157;-70
2022/12/10 09:22:53;;;;;;;27.25;15.10;;;;;;;-2.79;64.77;100412.72;6124207;23;20026;-71
2022/12/10 09:25:21;;;;;;;24.88;14.07;;;;;;;-2.82;65.22;100411.97;6125085;23;20032;-70
2022/12/10 09:27:48;;;;;;;26.08;15.32;;;;;;;-2.58;64.61;100412.44;6125292;23;20092;-69
2022/12/10 09:30:15;;;;;;;24.55;14.63;;;;;;;-2.91;65.18;100412.44;6125494;23;20097;-69
2022/12/10 09:32:42;;;;;;;25.10;14.38;;;;;;;-2.82;65.83;100411.97;6124436;23;20034;-69
2022/12/10 09:35:08;;;;;;;28.13;14.85;;;;;;;-2.66;64.75;100408.50;6123399;23;20022;-70
2022/12/10 09:37:35;;;;;;;25.05;14.77;;;;;;;-2.67;65.04;100409.44;6125325;23;20014;-70
2022/12/10 09:40:03;;;;;;;24.08;13.73;;;;;;;-2.59;64.84;100408.09;6125660;23;20029;-70
2022/12/10 09:43:07;;;;;;;27.08;14.68;;;;;;;-2.40;64.22;100402.69;6124325;23;20045;-69
2022/12/10 09:45:53;;;;;;;25.55;14.80;;;;;;;-2.41;64.29;100403.63;6124480;23;20033;-70
2022/12/10 09:48:29;;;;;;;26.17;15.15;;;;;;;-2.60;64.25;100405.56;6118173;23;20029;-70
2022/12/10 09:51:21;;;;;;;27.67;14.82;;;;;;;-2.67;65.09;100405.03;6122174;23;20083;-70
2022/12/10 09:53:48;;;;;;;;;;;;;;;-2.51;64.33;100405.06;6093444;23;20022;-70
2022/12/10 09:56:21;;;;;;;32.05;14.68;;;;;;;-2.53;64.88;100399.03;6095535;23;19953;-70
2022/12/10 09:58:49;;;;;;;25.73;15.48;;;;;;;-2.63;65.01;100400.47;6124898;23;20033;-70
2022/12/10 10:01:20;;;;;;;29.98;15.70;;;;;;;-2.57;64.04;100400.13;6124991;23;20029;-70
2022/12/10 10:03:47;;;;;;;;;;;;;;;-2.63;64.32;100403.09;6096894;23;20101;-70
2022/12/10 10:06:15;;;;;;;25.55;14.30;;;;;;;-2.54;64.14;100402.59;6095652;23;19917;-70
2022/12/10 10:08:52;;;;;;;32.10;15.43;;;;;;;-2.48;64.44;100401.41;6094651;23;20034;-71
2022/12/10 10:11:22;;;;;;;32.13;16.38;;;;;;;-2.45;64.53;100396.81;6125182;23;20018;-71
2022/12/10 10:13:57;;;;;;;24.50;15.35;;;;;;;-2.46;65.05;100408.25;6125357;23;20029;-71
2022/12/10 10:16:26;;;;;;;26.02;16.15;;;;;;;-2.40;63.87;100405.31;6124628;23;20014;-71
2022/12/10 10:19:06;;;;;;;28.30;15.80;;;;;;;-2.47;64.67;100403.13;6124799;23;20030;-70
2022/12/10 10:21:51;;;;;;;27.60;14.95;;;;;;;-2.28;63.78;100409.03;6125617;23;20022;-74
2022/12/10 10:24:42;;;;;;;31.75;15.98;;;;;;;-2.19;64.39;100411.16;6124559;23;20092;-74
2022/12/10 10:27:16;;;;;;;26.10;15.52;;;;;;;-2.05;64.08;100402.47;6123289;23;20097;-73
2022/12/10 10:29:45;;;;;;;28.35;15.30;;;;;;;-2.01;64.01;100404.00;6100323;23;20030;-74
2022/12/10 10:32:18;;;;;;;26.83;16.00;;;;;;;-1.89;64.05;100405.94;6127022;23;20030;-74
2022/12/10 10:34:52;;;;;;;24.63;15.20;;;;;;;-2.12;64.21;100412.50;6125344;23;20045;-74
2022/12/10 10:37:23;;;;;;;24.17;15.63;;;;;;;-1.95;64.09;100402.81;6115731;23;20018;-73
2022/12/10 10:39:51;;;;;;;27.83;15.07;;;;;;;-1.91;63.65;100394.66;6125828;23;20097;-74
2022/12/10 10:42:42;;;;;;;28.33;15.85;;;;;;;-1.82;63.53;100402.94;6095793;23;20026;-74
2022/12/10 10:45:30;;;;;;;26.25;16.00;;;;;;;-1.74;63.61;100400.72;6123724;23;20136;-74
2022/12/10 10:48:13;;;;;;;25.75;15.05;;;;;;;-1.87;63.44;100385.66;6123702;23;20105;-74
2022/12/10 10:50:44;;;;;;;30.40;15.68;;;;;;;-2.00;63.80;100382.03;6126530;23;20021;-73
2022/12/10 10:53:43;;;;;;;25.63;14.57;;;;;;;-1.85;62.88;100377.69;6125461;23;20037;-75
2022/12/10 10:56:20;;;;;;;26.38;14.95;;;;;;;-1.87;62.92;100383.00;6124634;23;20026;-74
2022/12/10 10:58:58;;;;;;;29.70;15.25;;;;;;;-1.91;62.94;100378.88;6124197;23;20018;-74
2022/12/10 11:01:42;;;;;;;26.60;15.52;;;;;;;-1.98;63.43;100384.59;6097920;23;20026;-73
2022/12/10 11:04:09;;;;;;;27.85;15.85;;;;;;;-1.83;62.71;100377.59;6097238;23;20018;-73
2022/12/10 11:06:36;;;;;;;25.00;15.07;;;;;;;-1.76;62.76;100379.75;6099386;23;20436;-74
2022/12/10 11:09:04;;;;;;;27.05;15.20;;;;;;;-1.73;63.03;100376.09;6083842;23;20106;-74
2022/12/10 11:11:35;;;;;;;27.25;15.45;;;;;;;-1.87;63.36;100383.00;6096713;23;20029;-74
2022/12/10 11:14:32;;;;;;;29.33;15.98;;;;;;;-2.01;64.27;100377.72;6098573;23;20026;-75
2022/12/10 11:17:18;;;;;;;28.20;14.98;;;;;;;-1.92;63.87;100376.34;6099158;23;20018;-74
2022/12/10 11:19:56;;;;;;;25.13;14.88;;;;;;;-1.84;62.93;100373.28;6077642;23;20025;-75
2022/12/10 11:22:29;;;;;;;24.13;14.23;;;;;;;-2.00;63.32;100365.41;6129434;23;20407;-73
2022/12/10 11:24:57;;;;;;;21.33;14.10;;;;;;;-1.89;63.87;100374.38;6128065;23;20384;-74
2022/12/10 11:27:59;;;;;;;27.30;15.63;;;;;;;-2.00;64.31;100370.66;6129786;23;20018;-74
2022/12/10 11:30:26;;;;;;;24.45;14.85;;;;;;;-1.99;64.52;100370.59;6075428;23;20033;-74
2022/12/10 11:33:19;;;;;;;28.75;16.45;;;;;;;-2.06;65.09;100374.50;6127488;23;20021;-75
2022/12/10 11:36:09;;;;;;;27.10;16.02;;;;;;;-2.19;64.83;100368.25;6128382;23;20131;-74